• Join FlightAware (Why Join?)
  • Login
  • US Flag 
04:46AM EDT


 

Airport Tracker/Info


-or-


 

Live Flight TrackerFlight Track Log ✈ SWA561 ✈ 24-Apr-2013 ✈ KOAK - KLAX

Flight Track Log - Related Links

Times and Time Zones

All times are in EDT time to prevent confusion due to time zone crossing. See the SWA561 flight status page for this flight to view local times or setup timezone preferences in your user account.

Time Position Orientation Groundspeed Altitude Reporting Facility
EDT Latitude Longitude Course Direction KTS MPH feet Rate Location/Type
08:17PM 37.7333 -122.2667 150° Southeast 195 224 2,700  Level Northern Cal TRACON
08:18PM 37.7333 -122.3333 270° West 253 291 4,900 3,240 Climbing Northern Cal TRACON
08:19PM 37.7000 -122.4167 243° Southwest 298 343 8,900 3,780 Climbing Northern Cal TRACON
08:20PM 37.6114 -122.4450 194° South 313 360 12,900 3,720 Climbing Oakland Center
08:21PM 37.5408 -122.3661 138° Southeast 345 397 16,900 3,120 Climbing Oakland Center
08:22PM 37.3216 -122.3559 150° Southeast  Level FlightAware Approximate
08:22PM 37.4694 -122.2747 135° Southeast 361 415 19,400  Level Oakland Center
08:23PM 37.3939 -122.1778 134° Southeast 381 438 22,500 2,880 Climbing Oakland Center
08:24PM 37.3144 -122.0742 134° Southeast 406 467 25,300 2,400 Climbing Oakland Center
08:25PM 37.2319 -121.9658 134° Southeast 425 489 27,500 2,340 Climbing Oakland Center
08:26PM 37.1464 -121.8550 134° Southeast 437 503 30,100 2,220 Climbing Oakland Center
08:27PM 37.0594 -121.7433 134° Southeast 447 514 32,100 2,280 Climbing Oakland Center
08:28PM 36.9503 -121.6081 135° Southeast 461 531 34,800 2,220 Climbing Oakland Center
08:29PM 36.8628 -121.4944 134° Southeast 457 526 36,700 1,680 Climbing Oakland Center
08:30PM 36.7844 -121.3925 134° Southeast 458 527 38,300 1,380 Climbing Oakland Center
08:31PM 36.6956 -121.2800 135° Southeast 458 527 39,600 1,200 Climbing Oakland Center
08:32PM 36.5864 -121.1428 135° Southeast 465 535 40,800 660 Climbing Oakland Center
08:33PM 36.4953 -121.0264 134° Southeast 469 540 41,000 60 Climbing Oakland Center
08:34PM 36.4039 -120.9131 135° Southeast 466 536 41,000  Level Oakland Center
08:35PM 36.3142 -120.7978 134° Southeast 465 535 41,000  Level Oakland Center
08:36PM 36.2217 -120.6872 136° Southeast 463 533 41,000  Level Oakland Center
08:37PM 36.1319 -120.5747 135° Southeast 458 527 41,000  Level Oakland Center
08:38PM 36.0417 -120.4600 134° Southeast 464 534 41,000  Level Oakland Center
08:39PM 35.9533 -120.3528 135° Southeast 444 511 41,000  Level Oakland Center
08:40PM 35.8642 -120.2442 135° Southeast 448 516 41,000  Level Oakland Center
08:41PM 35.7744 -120.1342 135° Southeast 450 518 41,000  Level Oakland Center
08:42PM 35.6844 -120.0253 135° Southeast 450 518 41,000  Level Oakland Center
08:43PM 35.5869 -119.9264 140° Southeast 450 518 41,000  Level Oakland Center
08:44PM 35.4831 -119.8378 145° Southeast 450 518 41,000  Level Oakland Center
08:45PM 35.3792 -119.7486 145° Southeast 451 519 41,000 -120 Level Oakland Center
08:46PM 35.3389 -119.7125 144° Southeast 453 521 40,900 -780 Descending Los Angeles Center
08:47PM 35.2356 -119.6236 145° Southeast 452 520 39,900 -1,200 Descending Los Angeles Center
08:48PM 35.1158 -119.5242 146° Southeast 435 501 38,400 -2,040 Descending Los Angeles Center
08:49PM 35.0197 -119.4392 144° Southeast 427 491 35,800 -2,940 Descending Los Angeles Center
08:50PM 34.9206 -119.3553 145° Southeast 432 497 32,400 -3,000 Descending Los Angeles Center
08:51PM 34.8233 -119.2717 145° Southeast 429 494 29,700 -2,580 Descending Los Angeles Center
08:52PM 34.7267 -119.1911 146° Southeast 422 486 27,100 -2,640 Descending Los Angeles Center
08:53PM 34.6239 -119.1058 146° Southeast 402 463 24,300 -2,580 Descending Los Angeles Center
08:54PM 34.5333 -119.0286 145° Southeast 390 449 21,800 -2,460 Descending Los Angeles Center
08:55PM 34.4456 -118.9544 145° Southeast 381 438 19,300 -2,280 Descending Los Angeles Center
08:56PM 34.3664 -118.8894 146° Southeast 345 397 17,100 -2,280 Descending Los Angeles Center
08:57PM 34.2783 -118.8514 160° South 338 389 14,700 -2,520 Descending Los Angeles Center
08:58PM 34.1736 -118.8133 163° South 328 377 12,000 -2,220 Descending Los Angeles Center
08:59PM 34.0972 -118.7694 155° Southeast 313 360 10,200 -1,020 Descending Los Angeles Center
09:00PM 34.0725 -118.6806 109° East 251 289 10,000 -600 Descending Los Angeles Center
09:01PM 34.0517 -118.6067 109° East 235 270 9,000 -1,200 Descending Los Angeles Center
09:02PM 34.0300 -118.5278 108° East 230 265 7,600 -1,020 Descending Los Angeles Center
09:03PM 34.0131 -118.4597 107° East 234 269 7,000 -780 Descending Los Angeles Center
09:04PM 34.0264 -118.3867 78° East 238 274 6,000 -1,200 Descending Los Angeles Center
09:05PM 34.0397 -118.2911 80° East 240 276 4,600 -1,320 Descending Los Angeles Center
09:06PM 34.0350 -118.2206 95° East 222 255 3,300 -1,200 Descending Los Angeles Center
09:07PM 33.9811 -118.2247 184° South 204 235 2,200 -600 Descending Los Angeles Center
09:08PM 33.9642 -118.2808 250° West 188 216 2,100 -480 Descending Los Angeles Center
09:09PM 33.9600 -118.3308 264° West 168 193 1,300 -780 Descending Los Angeles Center
09:10PM 33.9556 -118.3744 263° West 148 170 600 -540 Descending Los Angeles Center
09:11PM 33.9494 -118.4247 262° West 142 163 200 -420 Descending Los Angeles Center
09:13PM 33.9425 -118.4081 270° West  Level Estimated